Time;durP1;ratioP1;P1;durP2;ratioP2;P2;SDS_P1;SDS_P2;PMS_P1;PMS_P2;Temp;Humidity;BMP_temperature;BMP_pressure;BME280_temperature;BME280_humidity;BME280_pressure;Samples;Min_cycle;Max_cycle;Signal;HPM_P1;HPM_P2
2023/10/30 00:01:45;;;;;;;14.25;6.07;;;;;;;14.16;55.75;95022.59;4198183;28;20400;-69
2023/10/30 00:03:47;;;;;;;12.48;6.00;;;;;;;14.14;55.66;95028.03;4180944;28;20481;-69
2023/10/30 00:05:50;;;;;;;9.07;5.10;;;;;;;14.16;56.05;95021.78;4180638;28;20053;-69
2023/10/30 00:07:55;;;;;;;10.30;5.88;;;;;;;14.12;55.83;95021.31;4171712;28;20041;-69
2023/10/30 00:09:59;;;;;;;11.52;5.93;;;;;;;14.09;56.22;95016.41;4199342;28;20045;-68
2023/10/30 00:12:01;;;;;;;10.07;5.15;;;;;;;14.07;56.15;95016.56;4168784;28;20498;-70
2023/10/30 00:14:04;;;;;;;12.07;5.50;;;;;;;14.11;55.77;95019.66;4193791;28;20760;-70
2023/10/30 00:16:06;;;;;;;9.40;5.13;;;;;;;14.12;55.81;95022.13;4183298;28;20052;-69
2023/10/30 00:18:07;;;;;;;10.32;5.88;;;;;;;14.10;56.11;95018.84;4188728;28;20048;-69
2023/10/30 00:20:10;;;;;;;11.60;5.00;;;;;;;14.13;55.60;95018.50;4193602;28;20048;-69
2023/10/30 00:22:11;;;;;;;11.27;5.68;;;;;;;13.82;56.36;95018.47;4184363;28;20128;-70
2023/10/30 00:24:13;;;;;;;12.27;5.18;;;;;;;13.57;56.58;95022.19;4188998;28;20043;-70
2023/10/30 00:26:15;;;;;;;8.50;4.38;;;;;;;13.20;57.65;95026.19;4180576;28;20067;-70
2023/10/30 00:28:17;;;;;;;9.82;4.43;;;;;;;12.95;58.19;95028.03;4186544;28;20056;-69
2023/10/30 00:30:20;;;;;;;8.90;4.22;;;;;;;12.77;58.79;95020.31;4196338;28;20056;-67
2023/10/30 00:32:22;;;;;;;12.60;4.20;;;;;;;12.83;58.51;95019.66;4196717;28;20406;-70
2023/10/30 00:34:24;;;;;;;7.32;3.80;;;;;;;12.72;58.62;95014.75;4196589;28;20045;-68
2023/10/30 00:36:25;;;;;;;11.57;3.70;;;;;;;12.73;58.73;95022.44;4179693;28;20048;-70
2023/10/30 00:38:27;;;;;;;6.32;4.20;;;;;;;12.85;58.90;95017.69;4197630;28;20051;-68
2023/10/30 00:40:29;;;;;;;8.38;4.65;;;;;;;13.02;58.47;95019.31;4189770;28;20050;-69
2023/10/30 00:42:31;;;;;;;11.30;4.40;;;;;;;13.15;58.40;95013.56;4197382;28;20045;-72
2023/10/30 00:44:33;;;;;;;7.55;4.28;;;;;;;13.24;57.73;95017.81;4196570;28;20080;-70
2023/10/30 00:46:35;;;;;;;10.38;4.35;;;;;;;13.29;57.45;95020.81;4197705;28;20040;-68
2023/10/30 00:48:37;;;;;;;8.20;4.20;;;;;;;13.39;57.52;95015.34;4197447;28;20044;-68
2023/10/30 00:50:39;;;;;;;9.18;4.30;;;;;;;13.40;57.67;95018.78;4197370;28;20063;-68
2023/10/30 00:52:43;;;;;;;7.70;4.10;;;;;;;13.42;57.01;95012.38;4184357;28;20102;-68
2023/10/30 00:54:44;;;;;;;9.65;3.95;;;;;;;13.44;57.29;95023.56;4197606;28;20048;-71
2023/10/30 00:56:47;;;;;;;9.38;4.28;;;;;;;13.48;57.11;95010.88;4179947;28;20052;-69
2023/10/30 00:58:49;;;;;;;12.52;3.85;;;;;;;13.54;57.21;95017.28;4179521;28;20123;-71
2023/10/30 01:00:51;;;;;;;11.32;4.47;;;;;;;13.50;57.46;95012.34;4196830;28;20052;-71
2023/10/30 01:02:53;;;;;;;11.70;4.38;;;;;;;13.54;57.14;95015.47;4196731;28;20572;-68
2023/10/30 01:04:55;;;;;;;7.15;3.05;;;;;;;13.63;56.26;95016.25;4197633;28;20052;-68
2023/10/30 01:06:58;;;;;;;8.70;3.00;;;;;;;13.66;55.59;95026.47;4180355;28;20052;-71
2023/10/30 01:09:00;;;;;;;7.80;3.17;;;;;;;13.68;55.66;95016.56;4195847;28;20059;-70
2023/10/30 01:11:01;;;;;;;7.28;3.55;;;;;;;13.70;55.56;95015.41;4198262;28;20454;-69
2023/10/30 01:13:03;;;;;;;6.93;3.30;;;;;;;13.75;55.85;95014.91;4195677;28;20049;-69
2023/10/30 01:15:06;;;;;;;7.15;3.42;;;;;;;13.77;55.55;95012.91;4196318;28;20942;-70
2023/10/30 01:17:08;;;;;;;8.88;3.38;;;;;;;13.75;55.86;95009.63;4180544;28;20052;-70
2023/10/30 01:19:10;;;;;;;7.65;3.50;;;;;;;13.76;55.83;95010.44;4182245;28;20055;-69
2023/10/30 01:21:12;;;;;;;8.68;3.92;;;;;;;13.76;55.88;95010.44;4181991;28;20071;-70
2023/10/30 01:23:15;;;;;;;9.23;3.58;;;;;;;13.72;55.74;95007.31;4166363;28;20046;-70
2023/10/30 01:25:17;;;;;;;10.05;4.47;;;;;;;13.68;56.05;95008.66;4194413;28;20045;-68
2023/10/30 01:27:19;;;;;;;9.95;4.20;;;;;;;13.63;56.12;95011.00;4195104;28;20070;-70
2023/10/30 01:29:21;;;;;;;10.95;4.10;;;;;;;13.56;56.58;95002.97;4178631;28;20060;-70
2023/10/30 01:31:27;;;;;;;8.55;4.20;;;;;;;13.54;56.79;95010.19;4194373;28;20047;-69
2023/10/30 01:33:29;;;;;;;12.60;4.18;;;;;;;13.51;56.94;95014.00;4196640;28;20052;-70
2023/10/30 01:35:31;;;;;;;9.80;5.03;;;;;;;13.41;57.48;95015.19;4173298;28;20125;-71
2023/10/30 01:37:33;;;;;;;10.20;5.72;;;;;;;13.37;57.16;95006.78;4182733;28;20052;-68
2023/10/30 01:39:36;;;;;;;12.70;7.07;;;;;;;13.39;57.02;95004.00;4186273;28;20072;-70
2023/10/30 01:41:41;;;;;;;8.68;4.18;;;;;;;13.39;56.97;95007.44;4191158;28;20166;-71
2023/10/30 01:43:42;;;;;;;10.80;5.03;;;;;;;13.42;56.72;95007.13;4164855;28;20497;-70
2023/10/30 01:45:44;;;;;;;11.90;5.20;;;;;;;13.45;56.79;95004.13;4162409;28;20073;-70
2023/10/30 01:47:46;;;;;;;9.07;4.80;;;;;;;13.49;56.83;95009.91;4178533;28;20049;-68
2023/10/30 01:49:49;;;;;;;12.65;5.90;;;;;;;13.51;57.09;95014.00;4188461;28;20558;-69
2023/10/30 01:51:50;;;;;;;12.73;6.60;;;;;;;13.48;57.54;95009.06;4170903;28;20046;-70
2023/10/30 01:53:55;;;;;;;12.23;6.30;;;;;;;13.48;57.77;95013.50;4193791;28;20135;-70
2023/10/30 01:55:56;;;;;;;11.43;6.10;;;;;;;13.42;57.69;95016.81;4176595;28;20041;-69
2023/10/30 01:57:58;;;;;;;9.85;5.40;;;;;;;13.38;57.92;95018.97;4171896;28;20100;-69
2023/10/30 02:00:00;;;;;;;13.18;5.15;;;;;;;13.38;57.71;95013.72;4195429;28;20056;-70
2023/10/30 02:02:02;;;;;;;11.55;5.15;;;;;;;13.40;57.67;95019.63;4177323;28;20045;-68
2023/10/30 02:04:04;;;;;;;9.77;4.90;;;;;;;13.38;58.07;95015.50;4188956;28;20488;-69
2023/10/30 02:06:06;;;;;;;8.85;5.03;;;;;;;13.34;57.98;95019.47;4194632;28;20057;-68
2023/10/30 02:08:10;;;;;;;8.63;4.70;;;;;;;13.32;58.11;95020.44;4171765;28;20316;-69
2023/10/30 02:10:15;;;;;;;12.85;4.90;;;;;;;13.26;58.42;95023.72;4163348;28;20501;-69
2023/10/30 02:12:17;;;;;;;8.98;3.97;;;;;;;13.19;58.66;95028.03;4179748;28;20103;-70
2023/10/30 02:14:20;;;;;;;9.02;4.05;;;;;;;13.08;58.70;95026.56;4197926;28;20062;-69
2023/10/30 02:16:23;;;;;;;8.35;4.65;;;;;;;13.04;58.81;95022.59;4191657;28;20041;-70
2023/10/30 02:18:25;;;;;;;8.35;4.53;;;;;;;13.01;58.78;95017.66;4184769;28;20048;-68
2023/10/30 02:20:28;;;;;;;9.30;4.95;;;;;;;13.00;58.72;95026.56;4184125;28;20413;-69
2023/10/30 02:22:30;;;;;;;8.55;4.70;;;;;;;13.04;58.80;95019.97;4176342;28;20474;-70
2023/10/30 02:24:32;;;;;;;9.07;4.72;;;;;;;13.09;58.67;95030.81;4192582;28;20428;-69
2023/10/30 02:26:34;;;;;;;11.30;4.30;;;;;;;13.09;59.02;95024.75;4196161;28;20048;-69
2023/10/30 02:28:36;;;;;;;9.07;3.97;;;;;;;13.04;58.78;95027.88;4177749;28;20473;-68
2023/10/30 02:30:38;;;;;;;9.23;4.47;;;;;;;13.00;59.16;95026.56;4194427;28;20064;-69
2023/10/30 02:32:44;;;;;;;10.25;4.32;;;;;;;13.00;59.24;95025.75;4185652;28;20053;-70
2023/10/30 02:34:46;;;;;;;8.80;4.43;;;;;;;13.01;59.17;95028.19;4185887;28;20472;-70
2023/10/30 02:36:48;;;;;;;10.35;4.22;;;;;;;13.04;59.27;95027.06;4195760;28;20057;-69
2023/10/30 02:38:50;;;;;;;11.32;4.15;;;;;;;13.08;58.78;95021.28;4192627;28;20049;-69
2023/10/30 02:40:52;;;;;;;6.85;3.97;;;;;;;13.08;58.72;95025.75;4183550;28;20044;-70
2023/10/30 02:42:54;;;;;;;9.38;4.22;;;;;;;13.11;58.49;95028.03;4193217;28;20040;-68
2023/10/30 02:44:55;;;;;;;8.10;4.10;;;;;;;13.14;58.34;95026.88;4195151;28;20412;-69
2023/10/30 02:46:57;;;;;;;6.93;3.97;;;;;;;13.15;58.58;95025.88;4195410;28;20091;-70
2023/10/30 02:48:59;;;;;;;13.23;4.05;;;;;;;13.14;58.87;95017.16;4195924;28;20562;-70
2023/10/30 02:51:00;;;;;;;9.68;4.22;;;;;;;13.12;58.94;95019.16;4186331;28;20056;-69
2023/10/30 02:53:04;;;;;;;8.93;4.55;;;;;;;13.07;58.58;95021.44;4196217;28;20612;-68
2023/10/30 02:55:06;;;;;;;9.55;4.53;;;;;;;13.07;58.90;95017.00;4177712;28;20052;-70
2023/10/30 02:57:08;;;;;;;8.00;4.20;;;;;;;13.07;58.73;95017.00;4195891;28;20052;-69
2023/10/30 02:59:10;;;;;;;7.63;4.15;;;;;;;13.09;59.02;95017.66;4166811;28;20501;-69
2023/10/30 03:01:11;;;;;;;13.13;4.25;;;;;;;13.08;59.32;95018.66;4193952;28;20079;-68
2023/10/30 03:03:13;;;;;;;7.63;4.10;;;;;;;13.08;58.95;95018.66;4195816;28;20045;-69
2023/10/30 03:05:17;;;;;;;10.90;4.30;;;;;;;13.04;59.04;95025.25;4195919;28;20132;-70
2023/10/30 03:07:19;;;;;;;9.10;4.15;;;;;;;13.01;59.07;95022.09;4186348;28;20142;-70
2023/10/30 03:09:25;;;;;;;7.90;4.45;;;;;;;12.94;59.22;95026.41;4193620;28;20064;-71
2023/10/30 03:11:26;;;;;;;10.07;4.22;;;;;;;12.89;59.39;95016.38;4189411;28;20094;-71
2023/10/30 03:13:28;;;;;;;7.20;4.22;;;;;;;12.78;59.68;95017.53;4195462;28;20056;-72
2023/10/30 03:15:30;;;;;;;6.40;4.15;;;;;;;12.64;60.02;95021.63;4192883;28;20052;-68
2023/10/30 03:17:32;;;;;;;8.63;4.50;;;;;;;12.59;60.76;95026.56;4195235;28;20132;-68
2023/10/30 03:19:34;;;;;;;12.68;4.85;;;;;;;12.61;60.71;95026.41;4163070;28;20181;-70
2023/10/30 03:21:35;;;;;;;11.18;4.97;;;;;;;12.57;60.92;95028.53;4192326;28;20059;-71
2023/10/30 03:23:37;;;;;;;11.75;5.38;;;;;;;12.55;60.69;95025.25;4176175;28;20048;-69
2023/10/30 03:25:39;;;;;;;15.25;4.68;;;;;;;12.51;60.90;95042.31;4192608;28;20045;-70
2023/10/30 03:27:41;;;;;;;13.63;4.85;;;;;;;12.45;61.10;95035.91;4175670;28;20052;-70
2023/10/30 03:29:43;;;;;;;9.50;5.72;;;;;;;12.31;61.37;95035.72;4193376;28;20048;-67
2023/10/30 03:31:45;;;;;;;13.07;5.13;;;;;;;12.09;62.45;95035.34;4194493;28;20041;-68
2023/10/30 03:33:47;;;;;;;10.27;4.85;;;;;;;12.10;62.36;95034.34;4180946;28;20080;-68
2023/10/30 03:35:52;;;;;;;11.68;4.75;;;;;;;12.12;62.28;95042.91;4180957;28;20048;-71
2023/10/30 03:37:55;;;;;;;9.70;4.70;;;;;;;12.17;62.15;95047.66;4198560;28;20424;-70
2023/10/30 03:39:57;;;;;;;8.68;5.32;;;;;;;12.26;62.02;95042.28;4194852;28;20566;-68
2023/10/30 03:41:58;;;;;;;10.25;5.10;;;;;;;12.29;61.94;95049.84;4196895;28;20448;-70
2023/10/30 03:44:00;;;;;;;13.48;5.47;;;;;;;12.36;61.66;95041.31;4198223;28;20052;-71
2023/10/30 03:46:02;;;;;;;11.80;5.60;;;;;;;12.36;61.81;95042.13;4183198;28;20057;-70
2023/10/30 03:48:04;;;;;;;14.75;5.60;;;;;;;12.33;61.79;95045.09;4201444;28;20419;-70
2023/10/30 03:50:08;;;;;;;14.77;5.95;;;;;;;12.31;61.89;95036.53;4201858;28;20051;-70
2023/10/30 03:52:10;;;;;;;17.10;6.00;;;;;;;12.29;61.64;95044.56;4193737;28;20512;-70
2023/10/30 03:54:13;;;;;;;18.63;5.72;;;;;;;12.34;61.53;95038.84;4215382;28;20044;-68
2023/10/30 03:56:15;;;;;;;11.93;5.50;;;;;;;12.33;61.45;95039.84;4215080;28;20091;-68
2023/10/30 03:58:16;;;;;;;16.15;5.50;;;;;;;12.38;61.46;95039.34;4197806;28;20052;-71
2023/10/30 04:00:19;;;;;;;12.80;6.18;;;;;;;12.42;61.22;95033.59;4195971;28;20471;-70
2023/10/30 04:02:22;;;;;;;9.35;5.72;;;;;;;12.44;60.82;95036.06;4197306;28;20051;-69
2023/10/30 04:04:24;;;;;;;9.63;4.88;;;;;;;12.47;60.58;95038.38;4192574;28;20056;-68
2023/10/30 04:06:26;;;;;;;12.63;5.03;;;;;;;12.51;60.58;95039.69;4215607;28;20407;-69
2023/10/30 04:08:28;;;;;;;9.68;5.00;;;;;;;12.43;60.63;95034.41;4178808;28;20170;-70
2023/10/30 04:10:31;;;;;;;15.13;5.82;;;;;;;12.44;61.21;95038.69;4210796;28;20054;-69
2023/10/30 04:12:32;;;;;;;13.63;5.40;;;;;;;12.44;60.70;95036.88;4208171;28;20130;-70
2023/10/30 04:14:34;;;;;;;11.10;4.75;;;;;;;12.33;61.03;95028.50;4209013;28;20102;-70
2023/10/30 04:16:36;;;;;;;9.57;4.28;;;;;;;12.23;61.28;95036.53;4214378;28;20059;-68
2023/10/30 04:18:38;;;;;;;8.63;3.97;;;;;;;11.94;60.42;95035.13;4210243;28;20089;-69
2023/10/30 04:20:40;;;;;;;8.50;3.58;;;;;;;11.50;61.91;95042.28;4213453;28;20170;-70
2023/10/30 04:22:42;;;;;;;10.20;3.80;;;;;;;11.40;62.66;95040.63;4211190;28;20127;-70
2023/10/30 04:24:44;;;;;;;10.20;3.63;;;;;;;11.35;63.08;95035.00;4209097;28;20078;-69
2023/10/30 04:26:46;;;;;;;10.57;3.40;;;;;;;11.40;62.82;95022.25;4213569;28;20039;-71
2023/10/30 04:28:48;;;;;;;11.15;3.83;;;;;;;11.53;62.64;95029.69;4206569;28;20048;-71
2023/10/30 04:30:50;;;;;;;12.45;3.75;;;;;;;11.60;62.49;95035.94;4212346;28;20052;-70
2023/10/30 04:32:51;;;;;;;6.82;3.80;;;;;;;11.39;62.27;95035.50;4213861;28;20131;-70
2023/10/30 04:34:54;;;;;;;8.32;3.83;;;;;;;11.40;62.67;95030.13;4212192;28;20052;-70
2023/10/30 04:36:56;;;;;;;7.28;3.45;;;;;;;11.37;62.72;95033.03;4212293;28;20051;-70
2023/10/30 04:38:57;;;;;;;6.05;3.55;;;;;;;11.38;62.92;95034.69;4209991;28;20048;-69
2023/10/30 04:41:05;;;;;;;6.70;3.15;;;;;;;11.16;62.62;95032.59;4200493;28;20102;-67
2023/10/30 04:43:07;;;;;;;6.05;3.00;;;;;;;10.92;63.49;95038.50;4212834;28;20136;-70
2023/10/30 04:45:09;;;;;;;7.40;3.33;;;;;;;10.55;64.79;95044.75;4212837;28;20052;-69
2023/10/30 04:47:12;;;;;;;11.98;4.05;;;;;;;10.38;65.22;95044.59;4214258;28;20060;-69
2023/10/30 04:49:14;;;;;;;7.18;4.22;;;;;;;10.43;65.56;95044.97;4214632;28;20056;-67
2023/10/30 04:51:15;;;;;;;8.55;3.70;;;;;;;10.35;65.93;95041.47;4179595;28;20087;-70
2023/10/30 04:53:18;;;;;;;13.95;4.47;;;;;;;10.55;65.86;95052.59;4214445;28;20044;-69
2023/10/30 04:55:20;;;;;;;18.95;4.22;;;;;;;10.71;65.15;95046.66;4195994;28;20080;-71
2023/10/30 04:57:21;;;;;;;10.63;4.10;;;;;;;10.85;64.53;95044.34;4213746;28;20500;-70
2023/10/30 04:59:23;;;;;;;10.95;4.47;;;;;;;10.94;63.97;95047.84;4207885;28;20055;-68
2023/10/30 05:01:25;;;;;;;12.38;6.90;;;;;;;11.06;63.73;95044.00;4208097;28;20818;-71
2023/10/30 05:03:26;;;;;;;15.80;9.18;;;;;;;11.26;63.37;95046.41;4213862;28;20048;-72
2023/10/30 05:05:29;;;;;;;19.95;9.35;;;;;;;11.44;62.64;95043.72;4213969;28;20051;-70
2023/10/30 05:07:31;;;;;;;17.05;9.07;;;;;;;11.58;62.36;95044.97;4212868;28;20044;-70
2023/10/30 05:09:33;;;;;;;14.32;5.93;;;;;;;11.69;61.89;95042.06;4213811;28;20083;-71
2023/10/30 05:11:38;;;;;;;7.55;4.25;;;;;;;11.81;61.33;95048.69;4213074;28;20056;-73
2023/10/30 05:13:40;;;;;;;11.73;4.60;;;;;;;11.93;61.03;95049.22;4201391;28;20439;-71
2023/10/30 05:15:42;;;;;;;9.63;5.63;;;;;;;12.02;60.63;95048.31;4190382;28;20049;-72
2023/10/30 05:17:44;;;;;;;11.95;5.30;;;;;;;12.14;60.58;95048.81;4199068;28;20110;-70
2023/10/30 05:19:46;;;;;;;12.80;5.93;;;;;;;12.19;60.28;95056.22;4209425;28;20101;-70
2023/10/30 05:21:48;;;;;;;10.90;4.85;;;;;;;12.20;60.44;95060.50;4214468;28;20540;-70
2023/10/30 05:23:50;;;;;;;11.32;4.40;;;;;;;12.24;60.38;95065.25;4210571;28;20083;-70
2023/10/30 05:25:53;;;;;;;16.88;4.93;;;;;;;12.24;60.64;95067.88;4207824;28;20101;-71
2023/10/30 05:27:54;;;;;;;13.25;5.00;;;;;;;12.28;60.28;95063.97;4210419;28;20040;-69
2023/10/30 05:29:56;;;;;;;10.77;4.85;;;;;;;12.26;60.32;95068.56;4212539;28;20115;-72
2023/10/30 05:32:02;;;;;;;13.50;5.90;;;;;;;12.08;60.29;95073.09;4213587;28;20051;-71
2023/10/30 05:34:05;;;;;;;15.05;5.53;;;;;;;11.73;61.13;95074.88;4207173;28;20052;-72
2023/10/30 05:36:09;;;;;;;10.63;5.22;;;;;;;11.59;61.58;95081.53;4193297;28;20110;-72
2023/10/30 05:38:10;;;;;;;15.45;6.10;;;;;;;11.69;61.77;95073.56;4204358;28;20139;-71
2023/10/30 05:40:12;;;;;;;13.10;5.22;;;;;;;11.84;61.30;95077.22;4212379;28;20074;-70
2023/10/30 05:42:16;;;;;;;15.00;5.53;;;;;;;12.03;61.26;95089.31;4207032;28;20074;-71
2023/10/30 05:44:18;;;;;;;27.60;5.78;;;;;;;12.17;60.52;95090.50;4207625;28;20340;-72
2023/10/30 05:46:20;;;;;;;17.65;5.82;;;;;;;12.29;60.09;95091.88;4209560;28;20480;-70
2023/10/30 05:48:22;;;;;;;14.82;5.50;;;;;;;12.43;59.93;95082.56;4213261;28;20063;-71
2023/10/30 05:50:24;;;;;;;12.30;5.38;;;;;;;12.61;59.05;95089.47;4214359;28;20411;-70
2023/10/30 05:52:26;;;;;;;10.73;5.30;;;;;;;12.74;58.55;95086.38;4211772;28;20071;-71
2023/10/30 05:54:27;;;;;;;9.82;5.63;;;;;;;12.78;58.52;95083.25;4208804;28;20476;-70
2023/10/30 05:56:29;;;;;;;14.50;5.38;;;;;;;12.88;58.40;95090.97;4205156;28;20052;-73
2023/10/30 05:58:31;;;;;;;12.35;5.38;;;;;;;12.97;58.48;95091.78;4213393;28;20101;-70
2023/10/30 06:00:33;;;;;;;9.70;5.50;;;;;;;13.02;58.21;95092.97;4212065;28;20070;-72
2023/10/30 06:02:34;;;;;;;13.15;5.07;;;;;;;13.09;58.74;95099.19;4195638;28;20048;-71
2023/10/30 06:04:38;;;;;;;10.57;5.20;;;;;;;13.20;58.23;95105.13;4213773;28;20127;-72
2023/10/30 06:06:40;;;;;;;12.60;5.28;;;;;;;13.34;57.63;95101.88;4213537;28;20280;-71
2023/10/30 06:08:42;;;;;;;15.40;5.53;;;;;;;13.37;57.06;95101.53;4193391;28;20409;-72
2023/10/30 06:10:44;;;;;;;10.07;5.78;;;;;;;13.42;57.23;95106.28;4194470;28;20140;-71
2023/10/30 06:12:47;;;;;;;14.98;5.78;;;;;;;13.49;56.77;95100.19;4207247;28;20052;-71
2023/10/30 06:14:49;;;;;;;10.63;5.55;;;;;;;13.52;56.41;95105.13;4209947;28;20044;-69
2023/10/30 06:16:53;;;;;;;11.65;5.32;;;;;;;13.62;55.86;95109.41;4209056;28;20056;-71
2023/10/30 06:18:56;;;;;;;12.75;5.95;;;;;;;13.71;56.15;95103.94;4204188;28;20044;-71
2023/10/30 06:21:00;;;;;;;14.55;6.95;;;;;;;13.76;56.11;95105.25;4210040;28;20044;-71
2023/10/30 06:23:02;;;;;;;14.60;7.10;;;;;;;13.84;55.55;95107.84;4204529;28;20115;-70
2023/10/30 06:25:04;;;;;;;11.65;6.78;;;;;;;13.92;55.58;95116.56;4213354;28;20048;-71
2023/10/30 06:27:06;;;;;;;11.00;6.82;;;;;;;13.98;55.44;95108.94;4201008;28;20048;-69
2023/10/30 06:29:09;;;;;;;16.05;6.68;;;;;;;13.99;55.04;95105.34;4212638;28;20468;-74
2023/10/30 06:31:17;;;;;;;12.02;6.90;;;;;;;14.03;55.54;95102.19;4212745;28;20059;-70
2023/10/30 06:33:19;;;;;;;12.25;6.68;;;;;;;14.05;55.29;95116.00;4205452;28;20052;-71
2023/10/30 06:35:20;;;;;;;12.23;6.38;;;;;;;14.14;54.84;95114.19;4211837;28;20040;-73
2023/10/30 06:37:23;;;;;;;16.50;6.43;;;;;;;14.17;54.77;95113.00;4195214;28;20437;-73
2023/10/30 06:39:26;;;;;;;14.57;7.13;;;;;;;14.21;54.93;95109.84;4211624;28;20438;-73
2023/10/30 06:41:28;;;;;;;12.93;6.03;;;;;;;14.33;54.67;95110.31;4211369;28;20051;-71
2023/10/30 06:43:32;;;;;;;13.80;6.82;;;;;;;14.40;54.66;95108.63;4212527;28;20050;-72
2023/10/30 06:45:34;;;;;;;16.73;6.63;;;;;;;14.45;54.48;95113.38;4212305;28;20447;-73
2023/10/30 06:47:36;;;;;;;16.38;6.25;;;;;;;14.61;54.26;95115.16;4184501;28;20053;-71
2023/10/30 06:49:38;;;;;;;15.30;6.70;;;;;;;14.68;54.23;95108.16;4187456;28;20040;-72
2023/10/30 06:51:40;;;;;;;15.80;7.00;;;;;;;14.73;53.95;95109.31;4206169;28;20044;-70
2023/10/30 06:53:41;;;;;;;12.32;6.65;;;;;;;14.82;53.73;95106.59;4212594;28;20119;-72
2023/10/30 06:55:43;;;;;;;12.27;6.82;;;;;;;14.88;53.46;95104.06;4211271;28;20143;-73
2023/10/30 06:57:45;;;;;;;13.88;6.25;;;;;;;14.93;53.26;95108.84;4212300;28;20040;-72
2023/10/30 06:59:49;;;;;;;13.68;6.97;;;;;;;15.02;53.64;95099.88;4187359;28;20056;-71
2023/10/30 07:01:51;;;;;;;14.25;6.85;;;;;;;15.09;52.90;95098.16;4193681;28;20052;-71
2023/10/30 07:03:53;;;;;;;15.13;6.95;;;;;;;15.13;52.94;95106.53;4202832;28;20043;-72
2023/10/30 07:05:56;;;;;;;11.00;6.47;;;;;;;15.10;52.46;95102.44;4209389;28;20051;-74
2023/10/30 07:07:58;;;;;;;19.17;7.43;;;;;;;15.05;53.03;95103.97;4207134;28;20095;-73
2023/10/30 07:10:01;;;;;;;14.23;6.65;;;;;;;15.14;53.16;95106.38;4211556;28;20052;-73
2023/10/30 07:12:03;;;;;;;17.63;7.35;;;;;;;15.23;52.85;95106.28;4212488;28;20063;-72
2023/10/30 07:14:05;;;;;;;20.42;7.90;;;;;;;15.28;52.23;95103.94;4211500;28;20044;-72
2023/10/30 07:16:07;;;;;;;13.82;7.63;;;;;;;15.23;52.28;95103.66;4208030;28;20510;-72
2023/10/30 07:18:09;;;;;;;20.60;8.55;;;;;;;15.24;52.50;95102.66;4194323;28;20056;-72
2023/10/30 07:20:11;;;;;;;17.13;7.47;;;;;;;15.37;52.29;95108.16;4212611;28;20476;-72
2023/10/30 07:22:13;;;;;;;16.77;8.07;;;;;;;15.47;51.91;95100.00;4208715;28;20635;-72
2023/10/30 07:24:15;;;;;;;16.67;8.25;;;;;;;15.07;52.85;95105.41;4209599;28;20044;-71
2023/10/30 07:26:17;;;;;;;16.05;8.15;;;;;;;15.13;52.73;95104.72;4205824;28;20099;-72
2023/10/30 07:28:19;;;;;;;15.02;8.15;;;;;;;15.29;52.29;95106.41;4206861;28;20052;-74
2023/10/30 07:30:24;;;;;;;19.15;7.82;;;;;;;15.41;52.22;95101.53;4211567;28;20094;-71
2023/10/30 07:32:25;;;;;;;14.75;7.53;;;;;;;15.30;51.34;95109.88;4210654;28;20064;-72
2023/10/30 07:34:27;;;;;;;14.57;7.45;;;;;;;15.19;51.89;95107.66;4202504;28;20080;-72
2023/10/30 07:36:29;;;;;;;17.00;7.72;;;;;;;15.30;51.47;95107.22;4191800;28;20565;-73
2023/10/30 07:38:31;;;;;;;21.88;8.23;;;;;;;15.14;52.01;95106.38;4193430;28;20054;-72
2023/10/30 07:40:34;;;;;;;14.82;8.00;;;;;;;15.28;52.07;95106.59;4201869;28;20488;-72
2023/10/30 07:42:37;;;;;;;15.70;8.20;;;;;;;15.29;51.45;95105.56;4211896;28;20407;-71
2023/10/30 07:44:39;;;;;;;13.73;7.10;;;;;;;14.86;52.18;95108.72;4193271;28;20195;-72
2023/10/30 07:46:40;;;;;;;18.80;6.57;;;;;;;14.70;52.55;95101.72;4203605;28;20048;-73
2023/10/30 07:48:42;;;;;;;12.98;7.38;;;;;;;14.54;52.97;95107.09;4213196;28;20481;-72
2023/10/30 07:50:46;;;;;;;15.55;7.43;;;;;;;14.67;52.71;95101.25;4210162;28;20070;-71
2023/10/30 07:52:49;;;;;;;20.85;8.40;;;;;;;14.72;52.54;95110.28;4188565;28;20556;-72
2023/10/30 07:54:51;;;;;;;14.98;7.97;;;;;;;14.82;52.41;95112.72;4194970;28;20523;-72
2023/10/30 07:56:53;;;;;;;16.50;7.43;;;;;;;15.03;51.77;95103.31;4194811;28;20110;-71
2023/10/30 07:58:56;;;;;;;15.10;7.75;;;;;;;15.19;51.46;95108.47;4181182;28;20049;-74
2023/10/30 08:00:58;;;;;;;18.87;9.83;;;;;;;15.20;51.53;95104.81;4192962;28;20045;-71
2023/10/30 08:03:00;;;;;;;15.18;8.95;;;;;;;15.06;51.78;95102.97;4221508;28;20488;-71
2023/10/30 08:05:03;;;;;;;14.52;7.50;;;;;;;15.23;51.25;95098.38;4214610;28;20071;-72
2023/10/30 08:07:04;;;;;;;17.58;7.97;;;;;;;15.47;51.10;95098.16;4211636;28;20051;-74
2023/10/30 08:09:08;;;;;;;14.80;7.55;;;;;;;15.81;50.48;95090.75;4205892;28;20046;-73
2023/10/30 08:11:10;;;;;;;17.30;8.15;;;;;;;16.01;49.74;95091.03;4188581;28;20505;-73
2023/10/30 08:13:12;;;;;;;18.30;8.27;;;;;;;16.16;49.19;95090.03;4208225;28;20044;-73
2023/10/30 08:15:14;;;;;;;18.65;8.20;;;;;;;16.01;49.51;95085.75;4211012;28;20048;-73
2023/10/30 08:17:16;;;;;;;15.27;8.38;;;;;;;16.00;49.60;95082.28;4211952;28;20048;-72
2023/10/30 08:19:18;;;;;;;13.13;7.30;;;;;;;15.93;49.66;95089.31;4213168;28;20067;-72
2023/10/30 08:21:20;;;;;;;13.13;6.43;;;;;;;16.28;49.11;95087.75;4202132;28;20049;-73
2023/10/30 08:23:23;;;;;;;16.25;6.75;;;;;;;16.63;48.52;95080.00;4214512;28;20077;-74
2023/10/30 08:25:26;;;;;;;9.77;5.90;;;;;;;16.95;47.75;95086.66;4215201;28;20072;-72
2023/10/30 08:27:30;;;;;;;18.42;7.05;;;;;;;17.21;47.11;95082.63;4214769;28;20078;-72
2023/10/30 08:29:33;;;;;;;17.08;6.55;;;;;;;17.34;46.98;95082.72;4195888;28;20056;-73
2023/10/30 08:31:36;;;;;;;13.60;6.25;;;;;;;17.53;46.50;95085.72;4213666;28;20475;-73
2023/10/30 08:33:38;;;;;;;14.23;6.38;;;;;;;17.66;46.40;95085.84;4214890;28;20073;-73
2023/10/30 08:35:40;;;;;;;13.40;6.07;;;;;;;17.82;45.89;95087.38;4194718;28;20483;-73
2023/10/30 08:37:41;;;;;;;13.57;6.10;;;;;;;17.97;45.82;95088.09;4213952;28;20052;-73
2023/10/30 08:39:43;;;;;;;12.63;5.45;;;;;;;18.16;45.47;95080.44;4217718;28;20067;-73
2023/10/30 08:41:47;;;;;;;12.55;5.80;;;;;;;18.30;44.95;95089.25;4200730;28;20060;-73
2023/10/30 08:43:49;;;;;;;10.57;5.95;;;;;;;18.30;44.97;95082.13;4215377;28;20051;-74
2023/10/30 08:45:54;;;;;;;14.73;6.13;;;;;;;18.36;44.76;95085.81;4213521;28;20055;-74
2023/10/30 08:47:56;;;;;;;14.20;5.85;;;;;;;18.50;44.77;95081.38;4211328;28;20126;-72
2023/10/30 08:50:18;;;;;;;12.15;6.32;;;;;;;18.65;44.89;95079.41;4199641;28;20117;-72
2023/10/30 08:52:19;;;;;;;12.98;6.60;;;;;;;18.81;44.54;95079.06;4212132;28;20059;-73
2023/10/30 08:54:21;;;;;;;15.10;6.93;;;;;;;18.93;44.32;95078.47;4213890;28;20044;-73
2023/10/30 08:56:23;;;;;;;12.38;7.05;;;;;;;19.04;44.14;95077.91;4213612;28;20103;-73
2023/10/30 08:58:25;;;;;;;12.82;7.53;;;;;;;19.14;44.11;95070.31;4197013;28;20413;-73
2023/10/30 09:00:27;;;;;;;13.77;6.57;;;;;;;19.26;43.95;95069.75;4214051;28;20487;-72
2023/10/30 09:02:28;;;;;;;13.73;6.80;;;;;;;19.35;43.69;95069.31;4202764;28;20051;-74
2023/10/30 09:04:30;;;;;;;14.82;7.78;;;;;;;19.25;43.84;95068.91;4196369;28;20044;-73
2023/10/30 09:06:32;;;;;;;15.13;7.18;;;;;;;19.19;44.06;95070.56;4196661;28;20045;-73
2023/10/30 09:08:34;;;;;;;19.08;8.15;;;;;;;18.98;44.53;95057.47;4202177;28;20091;-74
2023/10/30 09:10:37;;;;;;;19.13;8.73;;;;;;;18.80;45.58;95061.50;4214583;28;20052;-75
2023/10/30 09:12:38;;;;;;;21.88;8.43;;;;;;;18.73;46.08;95065.94;4212786;28;20140;-73
2023/10/30 09:14:40;;;;;;;16.38;7.63;;;;;;;18.60;46.77;95060.59;4210810;28;20055;-73
2023/10/30 09:16:42;;;;;;;17.77;7.78;;;;;;;18.65;47.01;95063.50;4213381;28;20059;-74
2023/10/30 09:18:44;;;;;;;18.67;7.20;;;;;;;18.76;47.10;95062.91;4193095;28;20667;-72
2023/10/30 09:20:46;;;;;;;12.60;7.13;;;;;;;18.99;46.75;95046.66;4203498;28;20066;-75
2023/10/30 09:22:49;;;;;;;14.15;7.00;;;;;;;19.29;46.33;95054.19;4195894;28;20044;-73
2023/10/30 09:24:51;;;;;;;13.70;6.57;;;;;;;19.54;45.96;95045.63;4196293;28;20058;-73
2023/10/30 09:26:54;;;;;;;16.73;7.35;;;;;;;19.68;46.06;95041.94;4212820;28;20135;-73
2023/10/30 09:28:56;;;;;;;12.40;6.20;;;;;;;19.70;46.11;95039.06;4214333;28;20146;-74
2023/10/30 09:30:58;;;;;;;11.27;6.60;;;;;;;19.82;45.82;95048.06;4195467;28;20048;-73